sensor_id;sensor_type;location;lat;lon;timestamp;temperature;humidity
12477;DHT22;6303;51.504;6.300;2023-03-01T00:00:06;19.20;48.60
12477;DHT22;6303;51.504;6.300;2023-03-01T00:02:37;19.20;48.50
12477;DHT22;6303;51.504;6.300;2023-03-01T00:05:05;19.20;48.50
12477;DHT22;6303;51.504;6.300;2023-03-01T00:07:34;19.10;48.40
12477;DHT22;6303;51.504;6.300;2023-03-01T00:10:01;19.10;48.50
12477;DHT22;6303;51.504;6.300;2023-03-01T00:12:28;19.10;48.60
12477;DHT22;6303;51.504;6.300;2023-03-01T00:14:55;19.10;48.50
12477;DHT22;6303;51.504;6.300;2023-03-01T00:17:22;19.10;48.40
12477;DHT22;6303;51.504;6.300;2023-03-01T00:19:49;19.10;48.50
12477;DHT22;6303;51.504;6.300;2023-03-01T00:22:16;19.10;48.40
12477;DHT22;6303;51.504;6.300;2023-03-01T00:24:44;19.10;48.40
12477;DHT22;6303;51.504;6.300;2023-03-01T00:27:11;19.10;48.40
12477;DHT22;6303;51.504;6.300;2023-03-01T00:29:38;19.10;48.40
12477;DHT22;6303;51.504;6.300;2023-03-01T00:32:05;19.10;48.40
12477;DHT22;6303;51.504;6.300;2023-03-01T00:34:33;19.10;48.50
12477;DHT22;6303;51.504;6.300;2023-03-01T00:37:00;19.10;48.40
12477;DHT22;6303;51.504;6.300;2023-03-01T00:39:31;19.10;48.40
12477;DHT22;6303;51.504;6.300;2023-03-01T00:42:00;19.10;48.40
12477;DHT22;6303;51.504;6.300;2023-03-01T00:44:27;19.10;48.40
12477;DHT22;6303;51.504;6.300;2023-03-01T00:46:54;19.10;48.40
12477;DHT22;6303;51.504;6.300;2023-03-01T00:49:21;19.00;48.40
12477;DHT22;6303;51.504;6.300;2023-03-01T00:51:49;19.10;48.40
12477;DHT22;6303;51.504;6.300;2023-03-01T00:54:16;19.00;48.40
12477;DHT22;6303;51.504;6.300;2023-03-01T00:56:43;19.00;48.30
12477;DHT22;6303;51.504;6.300;2023-03-01T00:59:12;19.00;48.30
12477;DHT22;6303;51.504;6.300;2023-03-01T01:01:39;19.00;48.30
12477;DHT22;6303;51.504;6.300;2023-03-01T01:04:09;19.00;48.30
12477;DHT22;6303;51.504;6.300;2023-03-01T01:06:38;19.00;48.20
12477;DHT22;6303;51.504;6.300;2023-03-01T01:09:09;19.00;49.00
12477;DHT22;6303;51.504;6.300;2023-03-01T01:11:43;19.00;48.30
12477;DHT22;6303;51.504;6.300;2023-03-01T01:14:11;19.00;48.40
12477;DHT22;6303;51.504;6.300;2023-03-01T01:16:39;19.00;48.40
12477;DHT22;6303;51.504;6.300;2023-03-01T01:19:06;19.00;48.30
12477;DHT22;6303;51.504;6.300;2023-03-01T01:21:33;19.00;48.20
12477;DHT22;6303;51.504;6.300;2023-03-01T01:24:02;19.00;48.20
12477;DHT22;6303;51.504;6.300;2023-03-01T01:26:31;18.90;48.20
12477;DHT22;6303;51.504;6.300;2023-03-01T01:29:00;18.90;48.20
12477;DHT22;6303;51.504;6.300;2023-03-01T01:31:29;18.90;48.20
12477;DHT22;6303;51.504;6.300;2023-03-01T01:33:57;19.00;48.20
12477;DHT22;6303;51.504;6.300;2023-03-01T01:36:24;18.90;48.20
12477;DHT22;6303;51.504;6.300;2023-03-01T01:38:51;18.90;48.20
12477;DHT22;6303;51.504;6.300;2023-03-01T01:41:19;18.90;48.20
12477;DHT22;6303;51.504;6.300;2023-03-01T01:43:49;18.90;48.20
12477;DHT22;6303;51.504;6.300;2023-03-01T01:46:23;18.90;48.20
12477;DHT22;6303;51.504;6.300;2023-03-01T01:48:56;18.90;48.20
12477;DHT22;6303;51.504;6.300;2023-03-01T01:51:29;18.90;48.20
12477;DHT22;6303;51.504;6.300;2023-03-01T01:54:07;18.90;48.20
12477;DHT22;6303;51.504;6.300;2023-03-01T01:56:37;18.90;48.20
12477;DHT22;6303;51.504;6.300;2023-03-01T01:59:06;18.90;48.10
12477;DHT22;6303;51.504;6.300;2023-03-01T02:01:33;18.90;48.10
12477;DHT22;6303;51.504;6.300;2023-03-01T02:04:01;18.90;48.20
12477;DHT22;6303;51.504;6.300;2023-03-01T02:06:32;18.90;48.20
12477;DHT22;6303;51.504;6.300;2023-03-01T02:09:05;18.90;48.20
12477;DHT22;6303;51.504;6.300;2023-03-01T02:11:34;18.90;48.20
12477;DHT22;6303;51.504;6.300;2023-03-01T02:14:03;18.80;48.10
12477;DHT22;6303;51.504;6.300;2023-03-01T02:16:31;18.80;48.10
12477;DHT22;6303;51.504;6.300;2023-03-01T02:18:58;18.80;48.10
12477;DHT22;6303;51.504;6.300;2023-03-01T02:21:37;18.80;48.10
12477;DHT22;6303;51.504;6.300;2023-03-01T02:24:14;18.80;48.20
12477;DHT22;6303;51.504;6.300;2023-03-01T02:26:49;18.80;48.00
12477;DHT22;6303;51.504;6.300;2023-03-01T02:29:18;18.80;48.10
12477;DHT22;6303;51.504;6.300;2023-03-01T02:31:46;18.80;48.10
12477;DHT22;6303;51.504;6.300;2023-03-01T02:34:15;18.80;48.00
12477;DHT22;6303;51.504;6.300;2023-03-01T02:36:45;18.80;48.10
12477;DHT22;6303;51.504;6.300;2023-03-01T02:39:15;18.80;48.10
12477;DHT22;6303;51.504;6.300;2023-03-01T02:41:46;18.80;48.00
12477;DHT22;6303;51.504;6.300;2023-03-01T02:44:14;18.80;48.00
12477;DHT22;6303;51.504;6.300;2023-03-01T02:46:47;18.80;48.00
12477;DHT22;6303;51.504;6.300;2023-03-01T02:49:20;18.70;48.00
12477;DHT22;6303;51.504;6.300;2023-03-01T02:52:00;18.70;48.00
12477;DHT22;6303;51.504;6.300;2023-03-01T02:54:31;18.70;48.00
12477;DHT22;6303;51.504;6.300;2023-03-01T02:57:01;18.70;47.90
12477;DHT22;6303;51.504;6.300;2023-03-01T02:59:32;18.70;47.90
12477;DHT22;6303;51.504;6.300;2023-03-01T03:02:02;18.80;48.00
12477;DHT22;6303;51.504;6.300;2023-03-01T03:04:29;18.70;47.90
12477;DHT22;6303;51.504;6.300;2023-03-01T03:06:56;18.70;47.80
12477;DHT22;6303;51.504;6.300;2023-03-01T03:09:23;18.70;47.90
12477;DHT22;6303;51.504;6.300;2023-03-01T03:11:50;18.40;47.70
12477;DHT22;6303;51.504;6.300;2023-03-01T03:14:17;18.70;47.90
12477;DHT22;6303;51.504;6.300;2023-03-01T03:16:48;18.70;48.50
12477;DHT22;6303;51.504;6.300;2023-03-01T03:19:17;18.70;47.90
12477;DHT22;6303;51.504;6.300;2023-03-01T03:21:46;18.70;47.90
12477;DHT22;6303;51.504;6.300;2023-03-01T03:24:13;18.70;47.90
12477;DHT22;6303;51.504;6.300;2023-03-01T03:26:40;18.70;47.90
12477;DHT22;6303;51.504;6.300;2023-03-01T03:29:07;18.70;47.90
12477;DHT22;6303;51.504;6.300;2023-03-01T03:31:34;18.70;47.80
12477;DHT22;6303;51.504;6.300;2023-03-01T03:34:01;18.70;47.80
12477;DHT22;6303;51.504;6.300;2023-03-01T03:36:29;18.70;47.80
12477;DHT22;6303;51.504;6.300;2023-03-01T03:38:56;18.60;47.70
12477;DHT22;6303;51.504;6.300;2023-03-01T03:41:23;18.70;47.80
12477;DHT22;6303;51.504;6.300;2023-03-01T03:43:50;18.60;47.80
12477;DHT22;6303;51.504;6.300;2023-03-01T03:46:17;18.60;47.80
12477;DHT22;6303;51.504;6.300;2023-03-01T03:48:45;18.60;47.80
12477;DHT22;6303;51.504;6.300;2023-03-01T03:51:13;18.60;47.80
12477;DHT22;6303;51.504;6.300;2023-03-01T03:53:42;18.60;47.80
12477;DHT22;6303;51.504;6.300;2023-03-01T03:56:09;18.60;47.80
12477;DHT22;6303;51.504;6.300;2023-03-01T03:58:37;18.60;47.80
12477;DHT22;6303;51.504;6.300;2023-03-01T04:01:05;18.60;47.80
12477;DHT22;6303;51.504;6.300;2023-03-01T04:03:32;18.60;47.90
12477;DHT22;6303;51.504;6.300;2023-03-01T04:06:01;18.50;47.90
12477;DHT22;6303;51.504;6.300;2023-03-01T04:08:28;18.50;47.90
12477;DHT22;6303;51.504;6.300;2023-03-01T04:11:01;18.60;47.90
12477;DHT22;6303;51.504;6.300;2023-03-01T04:13:49;18.50;47.80
12477;DHT22;6303;51.504;6.300;2023-03-01T04:16:16;18.60;47.90
12477;DHT22;6303;51.504;6.300;2023-03-01T04:18:43;18.50;47.80
12477;DHT22;6303;51.504;6.300;2023-03-01T04:21:11;18.60;47.80
12477;DHT22;6303;51.504;6.300;2023-03-01T04:23:38;18.50;47.80
12477;DHT22;6303;51.504;6.300;2023-03-01T04:26:08;18.50;47.70
12477;DHT22;6303;51.504;6.300;2023-03-01T04:28:36;18.50;47.70
12477;DHT22;6303;51.504;6.300;2023-03-01T04:31:07;18.50;47.70
12477;DHT22;6303;51.504;6.300;2023-03-01T04:33:40;18.50;47.80
12477;DHT22;6303;51.504;6.300;2023-03-01T04:36:09;18.40;47.70
12477;DHT22;6303;51.504;6.300;2023-03-01T04:38:36;18.50;47.80
12477;DHT22;6303;51.504;6.300;2023-03-01T04:41:04;18.50;47.80
12477;DHT22;6303;51.504;6.300;2023-03-01T04:43:33;18.50;47.70
12477;DHT22;6303;51.504;6.300;2023-03-01T04:46:01;18.40;48.30
12477;DHT22;6303;51.504;6.300;2023-03-01T04:48:30;18.40;47.80
12477;DHT22;6303;51.504;6.300;2023-03-01T04:50:58;18.40;47.80
12477;DHT22;6303;51.504;6.300;2023-03-01T04:53:25;18.40;47.80
12477;DHT22;6303;51.504;6.300;2023-03-01T04:58:26;18.40;47.80
12477;DHT22;6303;51.504;6.300;2023-03-01T05:00:55;18.40;47.70
12477;DHT22;6303;51.504;6.300;2023-03-01T05:03:22;18.40;47.70
12477;DHT22;6303;51.504;6.300;2023-03-01T05:05:51;18.40;47.70
12477;DHT22;6303;51.504;6.300;2023-03-01T05:08:19;18.40;47.80
12477;DHT22;6303;51.504;6.300;2023-03-01T05:10:49;18.40;47.80
12477;DHT22;6303;51.504;6.300;2023-03-01T05:13:16;18.30;47.90
12477;DHT22;6303;51.504;6.300;2023-03-01T05:15:48;18.40;47.90
12477;DHT22;6303;51.504;6.300;2023-03-01T05:18:17;18.40;47.90
12477;DHT22;6303;51.504;6.300;2023-03-01T05:20:43;18.30;47.90
12477;DHT22;6303;51.504;6.300;2023-03-01T05:23:11;18.30;47.80
12477;DHT22;6303;51.504;6.300;2023-03-01T05:25:38;18.20;47.80
12477;DHT22;6303;51.504;6.300;2023-03-01T05:28:11;18.30;47.70
12477;DHT22;6303;51.504;6.300;2023-03-01T05:30:38;18.30;47.70
12477;DHT22;6303;51.504;6.300;2023-03-01T05:33:06;18.30;47.60
12477;DHT22;6303;51.504;6.300;2023-03-01T05:35:40;18.30;47.70
12477;DHT22;6303;51.504;6.300;2023-03-01T05:38:08;18.30;47.70
12477;DHT22;6303;51.504;6.300;2023-03-01T05:40:40;18.30;47.60
12477;DHT22;6303;51.504;6.300;2023-03-01T05:43:07;18.30;48.20
12477;DHT22;6303;51.504;6.300;2023-03-01T05:45:36;18.30;47.50
12477;DHT22;6303;51.504;6.300;2023-03-01T05:48:05;18.30;47.50
12477;DHT22;6303;51.504;6.300;2023-03-01T05:50:34;18.30;47.50
12477;DHT22;6303;51.504;6.300;2023-03-01T05:53:04;18.30;47.60
12477;DHT22;6303;51.504;6.300;2023-03-01T05:55:34;18.30;47.60
12477;DHT22;6303;51.504;6.300;2023-03-01T05:58:03;18.30;47.80
12477;DHT22;6303;51.504;6.300;2023-03-01T06:00:31;18.30;48.20
12477;DHT22;6303;51.504;6.300;2023-03-01T06:02:59;18.30;48.40
12477;DHT22;6303;51.504;6.300;2023-03-01T06:05:27;18.30;48.50
12477;DHT22;6303;51.504;6.300;2023-03-01T06:07:55;18.30;48.50
12477;DHT22;6303;51.504;6.300;2023-03-01T06:10:23;18.30;48.50
12477;DHT22;6303;51.504;6.300;2023-03-01T06:12:50;18.30;48.90
12477;DHT22;6303;51.504;6.300;2023-03-01T06:15:18;18.30;49.00
12477;DHT22;6303;51.504;6.300;2023-03-01T06:17:46;18.30;49.00
12477;DHT22;6303;51.504;6.300;2023-03-01T06:20:15;18.20;49.00
12477;DHT22;6303;51.504;6.300;2023-03-01T06:22:43;18.30;49.00
12477;DHT22;6303;51.504;6.300;2023-03-01T06:25:11;18.30;49.10
12477;DHT22;6303;51.504;6.300;2023-03-01T06:27:41;18.30;49.20
12477;DHT22;6303;51.504;6.300;2023-03-01T06:30:09;18.20;49.20
12477;DHT22;6303;51.504;6.300;2023-03-01T06:32:37;18.30;49.60
12477;DHT22;6303;51.504;6.300;2023-03-01T06:35:08;18.30;50.00
12477;DHT22;6303;51.504;6.300;2023-03-01T06:37:36;18.30;50.10
12477;DHT22;6303;51.504;6.300;2023-03-01T06:40:04;18.30;50.10
12477;DHT22;6303;51.504;6.300;2023-03-01T06:42:34;18.30;50.70
12477;DHT22;6303;51.504;6.300;2023-03-01T06:45:03;18.30;51.00
12477;DHT22;6303;51.504;6.300;2023-03-01T06:47:30;18.30;51.10
12477;DHT22;6303;51.504;6.300;2023-03-01T06:49:58;18.40;51.00
12477;DHT22;6303;51.504;6.300;2023-03-01T06:52:26;18.30;50.50
12477;DHT22;6303;51.504;6.300;2023-03-01T06:54:53;18.40;50.30
12477;DHT22;6303;51.504;6.300;2023-03-01T06:57:20;18.30;49.90
12477;DHT22;6303;51.504;6.300;2023-03-01T06:59:47;18.40;49.60
12477;DHT22;6303;51.504;6.300;2023-03-01T07:02:15;18.50;49.20
12477;DHT22;6303;51.504;6.300;2023-03-01T07:04:42;18.60;48.80
12477;DHT22;6303;51.504;6.300;2023-03-01T07:07:10;18.70;48.40
12477;DHT22;6303;51.504;6.300;2023-03-01T07:09:38;18.90;48.10
12477;DHT22;6303;51.504;6.300;2023-03-01T07:12:05;19.00;47.80
12477;DHT22;6303;51.504;6.300;2023-03-01T07:14:33;19.10;47.30
12477;DHT22;6303;51.504;6.300;2023-03-01T07:17:00;19.20;46.90
12477;DHT22;6303;51.504;6.300;2023-03-01T07:19:29;19.30;46.70
12477;DHT22;6303;51.504;6.300;2023-03-01T07:21:56;19.30;46.40
12477;DHT22;6303;51.504;6.300;2023-03-01T07:24:23;19.40;46.20
12477;DHT22;6303;51.504;6.300;2023-03-01T07:26:50;19.50;46.20
12477;DHT22;6303;51.504;6.300;2023-03-01T07:29:19;19.70;46.30
12477;DHT22;6303;51.504;6.300;2023-03-01T07:31:46;19.80;46.20
12477;DHT22;6303;51.504;6.300;2023-03-01T07:34:13;19.90;46.10
12477;DHT22;6303;51.504;6.300;2023-03-01T07:36:41;19.90;45.90
12477;DHT22;6303;51.504;6.300;2023-03-01T07:39:09;20.00;45.90
12477;DHT22;6303;51.504;6.300;2023-03-01T07:41:36;20.10;45.80
12477;DHT22;6303;51.504;6.300;2023-03-01T07:44:04;20.10;45.70
12477;DHT22;6303;51.504;6.300;2023-03-01T07:46:31;20.20;45.60
12477;DHT22;6303;51.504;6.300;2023-03-01T07:48:58;20.20;45.60
12477;DHT22;6303;51.504;6.300;2023-03-01T07:51:25;20.30;45.40
12477;DHT22;6303;51.504;6.300;2023-03-01T07:53:53;20.40;45.40
12477;DHT22;6303;51.504;6.300;2023-03-01T07:56:20;20.40;45.30
12477;DHT22;6303;51.504;6.300;2023-03-01T07:58:47;20.50;45.30
12477;DHT22;6303;51.504;6.300;2023-03-01T08:01:16;20.60;45.20
12477;DHT22;6303;51.504;6.300;2023-03-01T08:03:44;20.60;45.00
12477;DHT22;6303;51.504;6.300;2023-03-01T08:06:13;20.70;44.90
12477;DHT22;6303;51.504;6.300;2023-03-01T08:08:41;20.70;44.80
12477;DHT22;6303;51.504;6.300;2023-03-01T08:11:11;20.70;44.80
12477;DHT22;6303;51.504;6.300;2023-03-01T08:13:39;20.80;44.70
12477;DHT22;6303;51.504;6.300;2023-03-01T08:16:08;20.80;44.60
12477;DHT22;6303;51.504;6.300;2023-03-01T08:18:35;20.90;44.60
12477;DHT22;6303;51.504;6.300;2023-03-01T08:21:03;20.90;44.40
12477;DHT22;6303;51.504;6.300;2023-03-01T08:23:31;21.00;44.30
12477;DHT22;6303;51.504;6.300;2023-03-01T08:26:06;21.00;44.20
12477;DHT22;6303;51.504;6.300;2023-03-01T08:28:35;21.00;44.10
12477;DHT22;6303;51.504;6.300;2023-03-01T08:31:03;21.10;44.00
12477;DHT22;6303;51.504;6.300;2023-03-01T08:33:30;21.10;44.00
12477;DHT22;6303;51.504;6.300;2023-03-01T08:36:04;21.20;44.00
12477;DHT22;6303;51.504;6.300;2023-03-01T08:38:32;21.30;43.80
12477;DHT22;6303;51.504;6.300;2023-03-01T08:41:00;21.30;43.60
12477;DHT22;6303;51.504;6.300;2023-03-01T08:43:27;21.30;43.50
12477;DHT22;6303;51.504;6.300;2023-03-01T08:45:56;21.40;43.40
12477;DHT22;6303;51.504;6.300;2023-03-01T08:48:23;21.40;43.30
12477;DHT22;6303;51.504;6.300;2023-03-01T08:50:50;21.50;43.30
12477;DHT22;6303;51.504;6.300;2023-03-01T08:53:17;21.50;43.20
12477;DHT22;6303;51.504;6.300;2023-03-01T08:55:44;21.50;43.20
12477;DHT22;6303;51.504;6.300;2023-03-01T08:58:11;21.50;43.10
12477;DHT22;6303;51.504;6.300;2023-03-01T09:00:38;21.60;43.10
12477;DHT22;6303;51.504;6.300;2023-03-01T09:03:07;21.60;43.00
12477;DHT22;6303;51.504;6.300;2023-03-01T09:05:34;21.70;42.90
12477;DHT22;6303;51.504;6.300;2023-03-01T09:08:02;21.70;42.80
12477;DHT22;6303;51.504;6.300;2023-03-01T09:10:29;21.70;42.80
12477;DHT22;6303;51.504;6.300;2023-03-01T09:12:56;21.80;42.70
12477;DHT22;6303;51.504;6.300;2023-03-01T09:15:23;21.80;42.60
12477;DHT22;6303;51.504;6.300;2023-03-01T09:17:50;21.80;42.50
12477;DHT22;6303;51.504;6.300;2023-03-01T09:20:19;21.90;42.50
12477;DHT22;6303;51.504;6.300;2023-03-01T09:22:46;21.90;42.40
12477;DHT22;6303;51.504;6.300;2023-03-01T09:25:13;21.90;42.30
12477;DHT22;6303;51.504;6.300;2023-03-01T09:27:40;21.90;42.30
12477;DHT22;6303;51.504;6.300;2023-03-01T09:30:09;21.90;42.30
12477;DHT22;6303;51.504;6.300;2023-03-01T09:32:36;22.00;42.30
12477;DHT22;6303;51.504;6.300;2023-03-01T09:35:04;22.00;42.20
12477;DHT22;6303;51.504;6.300;2023-03-01T09:37:34;22.00;42.30
12477;DHT22;6303;51.504;6.300;2023-03-01T09:40:01;22.00;42.20
12477;DHT22;6303;51.504;6.300;2023-03-01T09:42:29;22.00;42.10
12477;DHT22;6303;51.504;6.300;2023-03-01T09:45:00;22.00;42.10
12477;DHT22;6303;51.504;6.300;2023-03-01T09:47:30;22.10;42.00
12477;DHT22;6303;51.504;6.300;2023-03-01T09:50:02;22.10;42.00
12477;DHT22;6303;51.504;6.300;2023-03-01T09:52:36;22.10;41.90
12477;DHT22;6303;51.504;6.300;2023-03-01T09:55:10;22.20;41.80
12477;DHT22;6303;51.504;6.300;2023-03-01T09:57:43;22.10;41.70
12477;DHT22;6303;51.504;6.300;2023-03-01T10:00:19;22.20;41.70
12477;DHT22;6303;51.504;6.300;2023-03-01T10:02:51;22.20;41.80
12477;DHT22;6303;51.504;6.300;2023-03-01T10:05:37;22.30;41.60
12477;DHT22;6303;51.504;6.300;2023-03-01T10:08:33;22.30;41.60
12477;DHT22;6303;51.504;6.300;2023-03-01T10:11:03;22.30;41.50
12477;DHT22;6303;51.504;6.300;2023-03-01T10:13:37;22.30;42.10
12477;DHT22;6303;51.504;6.300;2023-03-01T10:16:12;22.30;41.60
12477;DHT22;6303;51.504;6.300;2023-03-01T10:18:41;22.30;41.50
12477;DHT22;6303;51.504;6.300;2023-03-01T10:21:14;22.40;41.50
12477;DHT22;6303;51.504;6.300;2023-03-01T10:23:44;22.40;41.30
12477;DHT22;6303;51.504;6.300;2023-03-01T10:26:25;22.40;41.20
12477;DHT22;6303;51.504;6.300;2023-03-01T10:29:01;22.50;41.20
12477;DHT22;6303;51.504;6.300;2023-03-01T10:31:38;22.50;41.20
12477;DHT22;6303;51.504;6.300;2023-03-01T10:34:10;22.50;41.10
12477;DHT22;6303;51.504;6.300;2023-03-01T10:36:39;22.50;41.10
12477;DHT22;6303;51.504;6.300;2023-03-01T10:39:14;22.50;41.10
12477;DHT22;6303;51.504;6.300;2023-03-01T10:41:54;22.50;40.90
12477;DHT22;6303;51.504;6.300;2023-03-01T10:44:44;22.50;41.00
12477;DHT22;6303;51.504;6.300;2023-03-01T10:47:16;22.50;40.90
12477;DHT22;6303;51.504;6.300;2023-03-01T10:49:53;22.50;40.90
12477;DHT22;6303;51.504;6.300;2023-03-01T10:52:22;22.60;40.90
12477;DHT22;6303;51.504;6.300;2023-03-01T10:54:55;22.60;40.90
12477;DHT22;6303;51.504;6.300;2023-03-01T10:57:32;22.60;40.80
12477;DHT22;6303;51.504;6.300;2023-03-01T11:00:22;22.70;40.70
12477;DHT22;6303;51.504;6.300;2023-03-01T11:03:01;22.70;40.60
12477;DHT22;6303;51.504;6.300;2023-03-01T11:05:29;22.70;40.60
12477;DHT22;6303;51.504;6.300;2023-03-01T11:08:01;22.70;40.50
12477;DHT22;6303;51.504;6.300;2023-03-01T11:10:32;22.70;40.50
12477;DHT22;6303;51.504;6.300;2023-03-01T11:13:07;22.80;40.50
12477;DHT22;6303;51.504;6.300;2023-03-01T11:15:36;22.80;40.50
12477;DHT22;6303;51.504;6.300;2023-03-01T11:18:04;22.80;40.60
12477;DHT22;6303;51.504;6.300;2023-03-01T11:20:33;22.80;40.60
12477;DHT22;6303;51.504;6.300;2023-03-01T11:23:04;22.80;40.50
12477;DHT22;6303;51.504;6.300;2023-03-01T11:25:36;22.80;40.60
12477;DHT22;6303;51.504;6.300;2023-03-01T11:28:05;22.80;40.40
12477;DHT22;6303;51.504;6.300;2023-03-01T11:30:38;22.80;40.40
12477;DHT22;6303;51.504;6.300;2023-03-01T11:33:16;22.80;40.40
12477;DHT22;6303;51.504;6.300;2023-03-01T11:35:49;22.90;40.30
12477;DHT22;6303;51.504;6.300;2023-03-01T11:38:22;22.90;40.20
12477;DHT22;6303;51.504;6.300;2023-03-01T11:40:54;22.90;40.20
12477;DHT22;6303;51.504;6.300;2023-03-01T11:43:30;22.90;40.10
12477;DHT22;6303;51.504;6.300;2023-03-01T11:49:07;22.60;39.90
12477;DHT22;6303;51.504;6.300;2023-03-01T11:51:42;22.90;40.10
12477;DHT22;6303;51.504;6.300;2023-03-01T11:54:19;22.90;40.00
12477;DHT22;6303;51.504;6.300;2023-03-01T11:56:54;22.90;40.00
12477;DHT22;6303;51.504;6.300;2023-03-01T11:59:58;22.90;39.90
12477;DHT22;6303;51.504;6.300;2023-03-01T12:02:46;22.90;40.10
12477;DHT22;6303;51.504;6.300;2023-03-01T12:08:25;22.90;40.60
12477;DHT22;6303;51.504;6.300;2023-03-01T12:11:00;22.90;40.60
12477;DHT22;6303;51.504;6.300;2023-03-01T12:13:55;22.90;40.60
12477;DHT22;6303;51.504;6.300;2023-03-01T12:16:32;22.90;40.70
12477;DHT22;6303;51.504;6.300;2023-03-01T12:19:31;22.90;40.70
12477;DHT22;6303;51.504;6.300;2023-03-01T12:22:15;22.90;40.70
12477;DHT22;6303;51.504;6.300;2023-03-01T12:24:57;22.90;40.70
12477;DHT22;6303;51.504;6.300;2023-03-01T12:27:49;22.90;40.60
12477;DHT22;6303;51.504;6.300;2023-03-01T12:30:26;22.90;40.60
12477;DHT22;6303;51.504;6.300;2023-03-01T12:33:17;22.80;40.60
12477;DHT22;6303;51.504;6.300;2023-03-01T12:38:44;22.80;40.60
12477;DHT22;6303;51.504;6.300;2023-03-01T12:41:46;22.80;40.50
12477;DHT22;6303;51.504;6.300;2023-03-01T12:44:31;22.80;40.40
12477;DHT22;6303;51.504;6.300;2023-03-01T12:47:19;22.80;40.40
12477;DHT22;6303;51.504;6.300;2023-03-01T12:49:54;22.70;40.40
12477;DHT22;6303;51.504;6.300;2023-03-01T12:52:27;22.70;40.40
12477;DHT22;6303;51.504;6.300;2023-03-01T12:54:57;22.70;40.40
12477;DHT22;6303;51.504;6.300;2023-03-01T12:57:31;22.70;40.40
12477;DHT22;6303;51.504;6.300;2023-03-01T13:00:20;22.60;40.30
12477;DHT22;6303;51.504;6.300;2023-03-01T13:02:53;22.60;40.40
12477;DHT22;6303;51.504;6.300;2023-03-01T13:05:33;22.50;40.30
12477;DHT22;6303;51.504;6.300;2023-03-01T13:08:08;22.50;40.30
12477;DHT22;6303;51.504;6.300;2023-03-01T13:10:43;22.50;40.40
12477;DHT22;6303;51.504;6.300;2023-03-01T13:13:18;22.50;40.30
12477;DHT22;6303;51.504;6.300;2023-03-01T13:15:46;22.40;40.30
12477;DHT22;6303;51.504;6.300;2023-03-01T13:18:32;22.40;40.40
12477;DHT22;6303;51.504;6.300;2023-03-01T13:21:01;22.40;40.40
12477;DHT22;6303;51.504;6.300;2023-03-01T13:23:32;22.40;40.40
12477;DHT22;6303;51.504;6.300;2023-03-01T13:26:06;22.30;40.40
12477;DHT22;6303;51.504;6.300;2023-03-01T13:28:55;22.30;40.60
12477;DHT22;6303;51.504;6.300;2023-03-01T13:34:51;22.20;40.90
12477;DHT22;6303;51.504;6.300;2023-03-01T13:37:26;22.20;41.00
12477;DHT22;6303;51.504;6.300;2023-03-01T13:39:56;22.10;40.90
12477;DHT22;6303;51.504;6.300;2023-03-01T13:42:40;22.10;40.90
12477;DHT22;6303;51.504;6.300;2023-03-01T13:45:20;22.20;40.90
12477;DHT22;6303;51.504;6.300;2023-03-01T13:47:52;22.00;40.80
12477;DHT22;6303;51.504;6.300;2023-03-01T13:50:24;22.00;40.80
12477;DHT22;6303;51.504;6.300;2023-03-01T13:52:57;22.00;40.80
12477;DHT22;6303;51.504;6.300;2023-03-01T13:55:32;22.00;40.90
12477;DHT22;6303;51.504;6.300;2023-03-01T13:58:04;21.90;40.80
12477;DHT22;6303;51.504;6.300;2023-03-01T14:00:36;21.90;40.80
12477;DHT22;6303;51.504;6.300;2023-03-01T14:03:12;21.80;40.80
12477;DHT22;6303;51.504;6.300;2023-03-01T14:05:43;21.80;40.90
12477;DHT22;6303;51.504;6.300;2023-03-01T14:08:21;21.70;40.90
12477;DHT22;6303;51.504;6.300;2023-03-01T14:11:03;21.70;40.90
12477;DHT22;6303;51.504;6.300;2023-03-01T14:13:43;21.60;40.80
12477;DHT22;6303;51.504;6.300;2023-03-01T14:16:23;21.60;40.80
12477;DHT22;6303;51.504;6.300;2023-03-01T14:19:00;21.60;40.80
12477;DHT22;6303;51.504;6.300;2023-03-01T14:21:32;21.60;40.90
12477;DHT22;6303;51.504;6.300;2023-03-01T14:24:01;21.60;40.80
12477;DHT22;6303;51.504;6.300;2023-03-01T14:26:28;21.60;40.80
12477;DHT22;6303;51.504;6.300;2023-03-01T14:28:56;21.60;40.90
12477;DHT22;6303;51.504;6.300;2023-03-01T14:31:36;21.50;40.80
12477;DHT22;6303;51.504;6.300;2023-03-01T14:34:03;21.50;40.90
12477;DHT22;6303;51.504;6.300;2023-03-01T14:36:33;21.50;40.90
12477;DHT22;6303;51.504;6.300;2023-03-01T14:39:01;21.50;40.90
12477;DHT22;6303;51.504;6.300;2023-03-01T14:41:34;21.40;41.50
12477;DHT22;6303;51.504;6.300;2023-03-01T14:44:06;21.40;41.00
12477;DHT22;6303;51.504;6.300;2023-03-01T14:46:36;21.40;41.00
12477;DHT22;6303;51.504;6.300;2023-03-01T14:49:06;21.40;41.20
12477;DHT22;6303;51.504;6.300;2023-03-01T14:51:40;21.30;41.20
12477;DHT22;6303;51.504;6.300;2023-03-01T14:54:20;21.40;41.20
12477;DHT22;6303;51.504;6.300;2023-03-01T14:56:48;21.30;41.20
12477;DHT22;6303;51.504;6.300;2023-03-01T14:59:15;21.30;41.20
12477;DHT22;6303;51.504;6.300;2023-03-01T15:01:42;21.30;41.20
12477;DHT22;6303;51.504;6.300;2023-03-01T15:04:12;21.30;41.20
12477;DHT22;6303;51.504;6.300;2023-03-01T15:06:42;21.30;41.20
12477;DHT22;6303;51.504;6.300;2023-03-01T15:09:14;21.20;41.20
12477;DHT22;6303;51.504;6.300;2023-03-01T15:11:42;21.20;41.20
12477;DHT22;6303;51.504;6.300;2023-03-01T15:14:27;21.20;41.40
12477;DHT22;6303;51.504;6.300;2023-03-01T15:16:54;21.10;41.40
12477;DHT22;6303;51.504;6.300;2023-03-01T15:19:24;21.10;41.50
12477;DHT22;6303;51.504;6.300;2023-03-01T15:21:56;21.10;41.60
12477;DHT22;6303;51.504;6.300;2023-03-01T15:24:25;21.10;41.60
12477;DHT22;6303;51.504;6.300;2023-03-01T15:26:56;21.00;41.60
12477;DHT22;6303;51.504;6.300;2023-03-01T15:29:28;21.00;41.70
12477;DHT22;6303;51.504;6.300;2023-03-01T15:31:58;20.90;41.80
12477;DHT22;6303;51.504;6.300;2023-03-01T15:34:28;20.90;41.90
12477;DHT22;6303;51.504;6.300;2023-03-01T15:36:58;20.90;41.80
12477;DHT22;6303;51.504;6.300;2023-03-01T15:39:32;20.90;41.90
12477;DHT22;6303;51.504;6.300;2023-03-01T15:42:04;20.90;42.30
12477;DHT22;6303;51.504;6.300;2023-03-01T15:44:33;20.90;43.10
12477;DHT22;6303;51.504;6.300;2023-03-01T15:47:02;20.80;42.40
12477;DHT22;6303;51.504;6.300;2023-03-01T15:49:36;20.80;42.40
12477;DHT22;6303;51.504;6.300;2023-03-01T15:52:10;22.00;42.90
12477;DHT22;6303;51.504;6.300;2023-03-01T15:54:39;20.80;42.40
12477;DHT22;6303;51.504;6.300;2023-03-01T15:57:12;20.80;42.40
12477;DHT22;6303;51.504;6.300;2023-03-01T15:59:39;20.80;42.30
12477;DHT22;6303;51.504;6.300;2023-03-01T16:02:09;20.80;42.20
12477;DHT22;6303;51.504;6.300;2023-03-01T16:04:38;20.80;42.30
12477;DHT22;6303;51.504;6.300;2023-03-01T16:07:08;20.70;42.30
12477;DHT22;6303;51.504;6.300;2023-03-01T16:09:35;20.70;42.30
12477;DHT22;6303;51.504;6.300;2023-03-01T16:12:02;20.70;42.30
12477;DHT22;6303;51.504;6.300;2023-03-01T16:14:30;20.70;42.30
12477;DHT22;6303;51.504;6.300;2023-03-01T16:16:57;20.60;42.30
12477;DHT22;6303;51.504;6.300;2023-03-01T16:19:24;20.60;42.30
12477;DHT22;6303;51.504;6.300;2023-03-01T16:21:51;20.60;42.40